Main page
METAR-TAF:

METAR-TAF

Airports :

Castres–Mazamet Airport

Castres, France

latitude: 43-33-25N, longitude: 2-17-21E, elevation: 239 m

Current weather observation

The report was made 14 hours and 3 minutes ago, at 07:30 UTC
Calm wind
Temperature 7°C
Humidity 100%
Pressure 1023 hPa
Visibility 10 km or more
Broken clouds at a height of 3300 ft
Overcast at a height of 3900 ft

METAR: LFCK 280730Z AUTO 00000KT 9999 BKN033 OVC039 07/07 Q1023 NOSIG

Time: 22:33 (21:33 UTC)

Forecast

The report was made 4 hours and 33 minutes ago, at 17:00 UTC
Forecast valid from 28 at 18 UTC to 29 at 03 UTC
Wind 5 kt from the East/Southeast
Visibility 10 km or more
no clouds below 1500 m and no cumulonimbus
Becoming
from 28 at 21 UTC to 28 at 23 UTC
Wind 16 kt from the East/Southeast with gusts up to 26 kt
Becoming
from 28 at 23 UTC to 29 at 01 UTC
Wind 26 kt from the East/Southeast with gusts up to 36 kt

TAF: LFCK 281700Z 2818/2903 12005KT CAVOK BECMG 2821/2823 12016G26KT BECMG 2823/2901 12026G36KT

Weather observations and forecasts of more than 4000 airports (METAR and TAF reports).

The available stations are represented by yellow and red dots on the map.

Hover mouse over dot to see the name of the station.

Then click to see weather observations and forecasts.

To change the map : click on the green buttons with a black cross to zoom in, on the green button with a dash to zoom out, or on the green arrows for adjacent maps.


METAR-TAF: